createdAt,value
2022-11-16T00:00:01.554Z,65.70
2022-11-16T00:02:32.816Z,65.60
2022-11-16T00:05:00.176Z,65.60
2022-11-16T00:07:27.385Z,64.80
2022-11-16T00:09:54.631Z,64.40
2022-11-16T00:12:21.845Z,63.70
2022-11-16T00:14:49.083Z,64.00
2022-11-16T00:17:16.392Z,64.00
2022-11-16T00:19:43.680Z,64.70
2022-11-16T00:22:10.907Z,63.90
2022-11-16T00:24:38.482Z,63.50
2022-11-16T00:27:05.817Z,64.30
2022-11-16T00:29:32.977Z,64.20
2022-11-16T00:32:00.419Z,64.70
2022-11-16T00:34:28.224Z,64.20
2022-11-16T00:36:55.399Z,63.30
2022-11-16T00:39:22.792Z,63.70
2022-11-16T00:41:50.148Z,63.90
2022-11-16T00:44:18.577Z,62.10
2022-11-16T00:46:46.059Z,63.30
2022-11-16T00:49:13.245Z,61.60
2022-11-16T00:51:41.379Z,62.90
2022-11-16T00:54:12.412Z,63.60
2022-11-16T00:56:43.085Z,63.60
2022-11-16T00:59:13.510Z,63.40
2022-11-16T01:01:42.602Z,65.00
2022-11-16T01:04:10.518Z,64.30
2022-11-16T01:06:37.866Z,65.20
2022-11-16T01:09:11.250Z,64.20
2022-11-16T01:11:57.536Z,65.20
2022-11-16T01:14:24.584Z,66.00
2022-11-16T01:16:51.768Z,65.60
2022-11-16T01:19:20.817Z,66.10
2022-11-16T01:21:47.957Z,67.20
2022-11-16T01:24:15.137Z,67.60
2022-11-16T01:26:42.306Z,67.60
2022-11-16T01:29:10.296Z,67.80
2022-11-16T01:31:41.547Z,68.00
2022-11-16T01:34:09.721Z,69.00
2022-11-16T01:36:36.896Z,68.30
2022-11-16T01:39:05.606Z,68.40
2022-11-16T01:41:43.938Z,68.60
2022-11-16T01:44:35.835Z,68.70
2022-11-16T01:47:15.776Z,69.20
2022-11-16T01:49:47.934Z,68.90
2022-11-16T01:52:19.489Z,69.00
2022-11-16T01:54:47.821Z,68.70
2022-11-16T01:57:18.600Z,68.50
2022-11-16T01:59:55.785Z,68.50
2022-11-16T02:02:24.930Z,68.50
2022-11-16T02:04:52.576Z,68.60
2022-11-16T02:08:05.425Z,68.60
2022-11-16T02:10:59.182Z,68.60
2022-11-16T02:13:35.040Z,68.70
2022-11-16T02:16:26.994Z,69.20
2022-11-16T02:19:00.724Z,69.40
2022-11-16T02:21:37.501Z,70.00
2022-11-16T02:24:04.920Z,69.50
2022-11-16T02:26:35.159Z,69.30
2022-11-16T02:29:14.753Z,69.10
2022-11-16T02:31:47.230Z,69.10
2022-11-16T02:34:15.685Z,69.40
2022-11-16T02:36:42.963Z,68.90
2022-11-16T02:39:12.837Z,68.80
2022-11-16T02:41:44.046Z,68.70
2022-11-16T02:44:26.025Z,69.50
2022-11-16T02:46:54.914Z,68.60
2022-11-16T02:49:22.141Z,68.30
2022-11-16T02:51:52.383Z,68.30
2022-11-16T02:54:21.532Z,68.40
2022-11-16T02:56:57.144Z,67.90
2022-11-16T02:59:44.722Z,67.60
2022-11-16T03:02:33.272Z,67.30
2022-11-16T03:05:08.772Z,67.40
2022-11-16T03:08:08.802Z,67.60
2022-11-16T03:10:56.095Z,68.20
2022-11-16T03:13:24.702Z,68.50
2022-11-16T03:15:52.166Z,68.90
2022-11-16T03:18:19.487Z,69.10
2022-11-16T03:20:46.896Z,69.60
2022-11-16T03:23:14.223Z,69.90
2022-11-16T03:25:51.600Z,70.00
2022-11-16T03:28:24.321Z,70.20
2022-11-16T03:30:58.180Z,70.20
2022-11-16T03:33:35.668Z,70.30
2022-11-16T03:36:23.409Z,70.40
2022-11-16T03:38:51.060Z,70.60
2022-11-16T03:41:19.467Z,70.70
2022-11-16T03:43:47.062Z,70.60
2022-11-16T03:46:14.571Z,70.50
2022-11-16T03:48:41.654Z,70.40
2022-11-16T03:51:15.029Z,70.10
2022-11-16T03:53:42.979Z,69.90
2022-11-16T03:56:11.937Z,69.50
2022-11-16T03:58:40.379Z,69.20
2022-11-16T04:01:07.610Z,69.00
2022-11-16T04:03:34.917Z,68.30
2022-11-16T04:06:49.744Z,68.10
2022-11-16T04:09:50.652Z,68.10
2022-11-16T04:13:02.937Z,67.00
2022-11-16T04:15:50.933Z,68.00
2022-11-16T04:18:42.281Z,67.80
2022-11-16T04:25:44.050Z,67.40
2022-11-16T04:28:57.246Z,66.20
2022-11-16T04:31:54.094Z,65.80
2022-11-16T04:35:05.822Z,66.30
2022-11-16T04:38:02.123Z,66.30
2022-11-16T04:40:55.547Z,66.60
2022-11-16T04:44:03.862Z,66.90
2022-11-16T04:50:03.966Z,66.90
2022-11-16T04:53:17.768Z,67.20
2022-11-16T04:56:24.069Z,67.70
2022-11-16T04:59:30.540Z,67.60
2022-11-16T05:02:20.732Z,68.10
2022-11-16T05:05:14.869Z,68.30
2022-11-16T05:07:48.934Z,68.60
2022-11-16T05:10:30.879Z,69.20
2022-11-16T05:12:58.430Z,68.90
2022-11-16T05:15:27.491Z,69.30
2022-11-16T05:17:58.812Z,69.20
2022-11-16T05:20:48.086Z,69.60
2022-11-16T05:23:33.665Z,70.10
2022-11-16T05:26:07.136Z,70.20
2022-11-16T05:28:34.731Z,70.60
2022-11-16T05:31:02.991Z,70.70
2022-11-16T05:33:31.894Z,70.50
2022-11-16T05:35:59.226Z,70.70
2022-11-16T05:38:26.664Z,70.90
2022-11-16T05:40:57.486Z,70.80
2022-11-16T05:43:24.583Z,71.00
2022-11-16T05:46:07.250Z,71.00
2022-11-16T05:48:35.750Z,71.10
2022-11-16T05:51:04.444Z,71.10
2022-11-16T05:53:34.497Z,71.00
2022-11-16T05:56:01.774Z,71.10
2022-11-16T05:58:32.795Z,70.80
2022-11-16T06:01:03.525Z,70.60
2022-11-16T06:03:31.092Z,70.70
2022-11-16T06:06:07.996Z,70.60
2022-11-16T06:11:59.220Z,70.20
2022-11-16T06:14:36.217Z,69.90
2022-11-16T06:17:24.170Z,70.10
2022-11-16T06:19:54.264Z,70.40
2022-11-16T06:22:44.546Z,70.30
2022-11-16T06:25:16.789Z,70.30
2022-11-16T06:27:47.464Z,70.10
2022-11-16T06:30:17.388Z,70.30
2022-11-16T06:32:48.805Z,70.30
2022-11-16T06:35:16.345Z,70.60
2022-11-16T06:37:44.973Z,70.70
2022-11-16T06:40:13.380Z,70.90
2022-11-16T06:42:44.084Z,70.90
2022-11-16T06:45:13.894Z,71.50
2022-11-16T06:48:01.919Z,71.40
2022-11-16T06:50:30.195Z,71.30
2022-11-16T06:53:07.562Z,71.40
2022-11-16T06:55:38.855Z,71.60
2022-11-16T06:58:06.991Z,71.10
2022-11-16T07:00:34.977Z,71.40
2022-11-16T07:03:04.698Z,71.40
2022-11-16T07:05:32.272Z,71.30
2022-11-16T07:08:00.581Z,71.60
2022-11-16T07:10:28.024Z,71.50
2022-11-16T07:12:55.227Z,71.50
2022-11-16T07:15:23.939Z,71.60
2022-11-16T07:17:52.513Z,71.70
2022-11-16T07:20:23.240Z,71.50
2022-11-16T07:22:51.402Z,71.70
2022-11-16T07:25:20.224Z,71.60
2022-11-16T07:27:48.069Z,71.80
2022-11-16T07:30:15.471Z,71.90
2022-11-16T07:33:18.305Z,72.10
2022-11-16T07:36:22.006Z,72.30
2022-11-16T07:38:49.500Z,72.40
2022-11-16T07:41:18.442Z,72.50
2022-11-16T07:43:54.060Z,72.60
2022-11-16T07:46:45.838Z,72.60
2022-11-16T07:49:17.006Z,72.60
2022-11-16T07:51:54.263Z,72.60
2022-11-16T07:54:38.792Z,72.40
2022-11-16T07:57:06.410Z,72.50
2022-11-16T07:59:33.847Z,72.50
2022-11-16T08:02:03.004Z,72.50
2022-11-16T08:04:31.259Z,72.60
2022-11-16T08:07:03.406Z,72.60
2022-11-16T08:09:35.136Z,72.60
2022-11-16T08:12:02.526Z,72.70
2022-11-16T08:14:30.989Z,72.70
2022-11-16T08:17:00.409Z,72.70
2022-11-16T08:19:28.146Z,72.60
2022-11-16T08:22:13.821Z,72.40
2022-11-16T08:24:41.973Z,72.60
2022-11-16T08:27:09.973Z,73.20
2022-11-16T08:29:37.984Z,72.10
2022-11-16T08:32:10.557Z,72.20
2022-11-16T08:34:59.449Z,71.70
2022-11-16T08:37:43.902Z,71.90
2022-11-16T08:40:26.886Z,71.80
2022-11-16T08:46:02.702Z,72.10
2022-11-16T08:48:29.989Z,72.10
2022-11-16T08:51:21.451Z,71.60
2022-11-16T08:53:58.452Z,71.50
2022-11-16T08:57:25.571Z,71.60
2022-11-16T09:00:01.458Z,71.30
2022-11-16T09:02:30.835Z,71.50
2022-11-16T09:04:58.211Z,71.50
2022-11-16T09:07:28.684Z,70.80
2022-11-16T09:09:56.195Z,70.90
2022-11-16T09:12:23.473Z,70.90
2022-11-16T09:14:51.225Z,70.80
2022-11-16T09:17:23.314Z,70.70
2022-11-16T09:19:53.744Z,70.90
2022-11-16T09:22:36.786Z,70.40
2022-11-16T09:32:04.749Z,70.50
2022-11-16T09:35:18.312Z,70.10
2022-11-16T09:37:48.286Z,69.70
2022-11-16T09:40:18.452Z,69.60
2022-11-16T09:43:31.783Z,69.40
2022-11-16T09:46:34.059Z,70.00
2022-11-16T09:49:03.106Z,69.30
2022-11-16T09:51:33.927Z,67.10
2022-11-16T09:54:45.696Z,66.70
2022-11-16T09:57:23.530Z,67.50
2022-11-16T09:59:56.356Z,67.30
2022-11-16T10:48:32.402Z,65.30
2022-11-16T10:51:10.502Z,65.90
2022-11-16T10:53:47.139Z,65.50
2022-11-16T10:57:30.183Z,65.20
2022-11-16T11:01:17.328Z,65.00
2022-11-16T11:35:52.632Z,55.30
2022-11-16T11:42:38.841Z,55.90
2022-11-16T11:52:39.523Z,52.30
2022-11-16T11:55:41.871Z,49.60
2022-11-16T11:58:15.993Z,52.90
2022-11-16T12:01:05.233Z,52.10
2022-11-16T12:06:33.025Z,51.60
2022-11-16T12:09:12.453Z,48.90
2022-11-16T12:45:52.054Z,54.90
2022-11-16T12:48:23.448Z,54.90
2022-11-16T12:51:28.874Z,57.70
2022-11-16T12:55:29.585Z,56.90
2022-11-16T12:58:31.449Z,58.70
2022-11-16T13:01:34.113Z,57.30
2022-11-16T13:05:11.350Z,56.50
2022-11-16T13:08:58.705Z,57.40
2022-11-16T13:15:22.242Z,58.10
2022-11-16T13:18:32.184Z,59.80
2022-11-16T13:22:13.648Z,59.00
2022-11-16T13:25:33.885Z,58.80
2022-11-16T13:40:37.616Z,57.20
2022-11-16T13:48:10.208Z,55.70
2022-11-16T13:56:29.635Z,57.00
2022-11-16T14:02:07.952Z,56.70
2022-11-16T14:05:07.954Z,56.30
2022-11-16T14:07:54.740Z,57.00
2022-11-16T14:10:38.903Z,57.10
2022-11-16T14:14:28.228Z,58.00
2022-11-16T14:16:59.958Z,58.80
2022-11-16T14:19:58.991Z,58.90
2022-11-16T14:23:14.218Z,59.20
2022-11-16T14:26:41.617Z,59.80
2022-11-16T14:33:46.801Z,61.50
2022-11-16T15:22:00.374Z,64.80
2022-11-16T15:25:49.493Z,64.80
2022-11-16T15:28:18.731Z,64.70
2022-11-16T15:30:59.823Z,64.80
2022-11-16T15:33:36.885Z,64.60
2022-11-16T15:36:24.146Z,65.90
2022-11-16T15:38:55.834Z,66.40
2022-11-16T16:31:11.720Z,72.30
2022-11-16T16:35:10.547Z,72.40
2022-11-16T16:42:59.853Z,72.40
2022-11-16T16:53:36.462Z,72.40
2022-11-16T17:12:42.245Z,70.80
2022-11-16T17:15:12.812Z,70.60
2022-11-16T17:17:43.213Z,70.70
2022-11-16T17:20:16.966Z,70.50
2022-11-16T17:25:53.218Z,70.80
2022-11-16T17:28:47.242Z,69.70
2022-11-16T17:44:21.231Z,70.90
2022-11-16T17:47:37.063Z,72.00
2022-11-16T17:50:04.963Z,72.10
2022-11-16T17:52:56.954Z,72.20
2022-11-16T17:55:24.360Z,71.50
2022-11-16T17:57:59.027Z,69.70
2022-11-16T18:00:30.134Z,70.00
2022-11-16T18:03:02.023Z,69.80
2022-11-16T18:05:32.451Z,69.90
2022-11-16T18:08:03.319Z,70.00
2022-11-16T18:10:48.353Z,69.70
2022-11-16T18:13:25.977Z,70.20
2022-11-16T18:15:56.707Z,70.30
2022-11-16T18:18:27.173Z,70.80
2022-11-16T18:20:58.860Z,71.10
2022-11-16T18:23:31.763Z,70.50
2022-11-16T18:25:59.470Z,70.60
2022-11-16T18:28:30.625Z,70.60
2022-11-16T18:31:08.967Z,70.60
2022-11-16T18:33:36.882Z,70.70
2022-11-16T18:36:07.541Z,71.00
2022-11-16T18:38:35.141Z,71.30
2022-11-16T18:41:11.506Z,71.30
2022-11-16T18:43:39.804Z,71.40
2022-11-16T18:46:06.963Z,71.80
2022-11-16T18:48:47.668Z,72.20
2022-11-16T18:51:15.424Z,72.40
2022-11-16T18:53:42.570Z,72.50
2022-11-16T18:56:10.079Z,72.40
2022-11-16T18:58:53.178Z,72.70
2022-11-16T19:01:23.359Z,72.70
2022-11-16T19:03:54.102Z,72.60
2022-11-16T19:07:00.423Z,72.70
2022-11-16T19:13:55.080Z,72.40
2022-11-16T19:20:29.170Z,72.60
2022-11-16T19:22:59.582Z,72.30
2022-11-16T19:25:27.003Z,72.20
2022-11-16T19:27:54.365Z,72.40
2022-11-16T19:30:21.631Z,71.60
2022-11-16T19:32:48.788Z,71.30
2022-11-16T19:35:18.406Z,71.60
2022-11-16T19:37:47.866Z,71.70
2022-11-16T19:40:15.316Z,71.40
2022-11-16T19:42:45.616Z,71.60
2022-11-16T19:45:16.073Z,72.00
2022-11-16T19:47:43.165Z,72.10
2022-11-16T19:50:23.130Z,72.40
2022-11-16T19:53:10.918Z,72.80
2022-11-16T19:55:40.134Z,73.00
2022-11-16T19:58:07.404Z,73.10
2022-11-16T20:00:34.686Z,73.10
2022-11-16T20:03:02.122Z,73.40
2022-11-16T20:05:30.445Z,73.40
2022-11-16T20:08:16.459Z,73.50
2022-11-16T20:10:43.730Z,73.10
2022-11-16T20:13:11.397Z,74.20
2022-11-16T20:15:38.880Z,73.60
2022-11-16T20:18:06.210Z,73.60
2022-11-16T20:20:33.392Z,73.80
2022-11-16T20:23:00.547Z,73.90
2022-11-16T20:25:29.613Z,74.00
2022-11-16T20:27:56.728Z,74.10
2022-11-16T20:30:28.191Z,74.20
2022-11-16T20:32:58.583Z,74.30
2022-11-16T20:35:25.770Z,74.30
2022-11-16T20:37:55.358Z,74.30
2022-11-16T20:40:25.461Z,74.40
2022-11-16T20:42:59.463Z,74.40
2022-11-16T20:45:27.065Z,75.30
2022-11-16T20:47:54.458Z,74.40
2022-11-16T20:51:17.493Z,74.40
2022-11-16T20:53:52.730Z,74.40
2022-11-16T20:56:29.614Z,74.10
2022-11-16T20:58:58.284Z,74.00
2022-11-16T21:01:31.982Z,74.00
2022-11-16T21:04:04.037Z,74.00
2022-11-16T21:06:31.632Z,74.20
2022-11-16T21:08:59.410Z,74.40
2022-11-16T21:11:29.244Z,74.80
2022-11-16T21:14:28.236Z,74.90
2022-11-16T21:16:55.692Z,75.00
2022-11-16T21:20:29.300Z,75.10
2022-11-16T21:23:07.519Z,75.10
2022-11-16T21:25:35.803Z,75.10
2022-11-16T21:28:02.921Z,75.20
2022-11-16T21:30:30.084Z,75.20
2022-11-16T21:32:57.400Z,75.30
2022-11-16T21:35:26.345Z,75.50
2022-11-16T21:37:53.430Z,75.50
2022-11-16T21:40:20.846Z,75.30
2022-11-16T21:42:47.937Z,75.40
2022-11-16T21:45:15.019Z,75.40
2022-11-16T21:47:42.227Z,75.40
2022-11-16T21:53:00.692Z,75.20
2022-11-16T21:55:27.747Z,75.10
2022-11-16T21:58:03.624Z,75.10
2022-11-16T22:00:30.798Z,75.20
2022-11-16T22:02:57.896Z,75.10
2022-11-16T22:05:43.987Z,75.20
2022-11-16T22:08:14.235Z,75.30
2022-11-16T22:10:41.517Z,75.30
2022-11-16T22:13:08.923Z,75.40
2022-11-16T22:15:35.996Z,75.40
2022-11-16T22:18:03.976Z,75.50
2022-11-16T22:20:31.703Z,75.50
2022-11-16T22:22:58.799Z,75.60
2022-11-16T22:25:26.110Z,75.60
2022-11-16T22:28:19.250Z,75.60
2022-11-16T22:30:40.904Z,75.40
2022-11-16T22:33:08.719Z,75.50
2022-11-16T22:35:39.137Z,75.60
2022-11-16T22:38:06.556Z,75.70
2022-11-16T22:40:33.737Z,75.60
2022-11-16T22:43:00.808Z,75.60
2022-11-16T22:45:28.143Z,75.70
2022-11-16T22:47:55.360Z,75.70
2022-11-16T22:50:24.199Z,75.60
2022-11-16T22:52:54.424Z,75.70
2022-11-16T22:55:21.956Z,75.80
2022-11-16T22:57:49.052Z,75.90
2022-11-16T23:00:16.920Z,75.90
2022-11-16T23:02:44.120Z,75.90
2022-11-16T23:05:11.274Z,76.00
2022-11-16T23:08:10.522Z,76.00
2022-11-16T23:11:07.186Z,76.10
2022-11-16T23:13:53.425Z,76.20
2022-11-16T23:16:20.571Z,76.20
2022-11-16T23:18:47.933Z,76.10
2022-11-16T23:21:33.491Z,76.20
2022-11-16T23:25:02.560Z,76.10
2022-11-16T23:27:55.415Z,76.10
2022-11-16T23:30:22.916Z,76.10
2022-11-16T23:32:50.223Z,76.10
2022-11-16T23:35:17.763Z,76.10
2022-11-16T23:38:17.456Z,76.10
2022-11-16T23:40:45.178Z,76.10
2022-11-16T23:43:36.588Z,76.10
2022-11-16T23:46:04.084Z,75.90
2022-11-16T23:48:37.745Z,75.90
2022-11-16T23:51:10.664Z,76.00
2022-11-16T23:53:37.949Z,76.10
2022-11-16T23:56:06.297Z,76.10
2022-11-16T23:58:33.648Z,76.10
